Latest Weather Observations for Hobart

IDT60801

Issued at 2:02 am EST Saturday 30 July 2016 (issued every 30 minutes, with the page automatically refreshed every 10 minutes)

About weather observations | Map of weather stations | Latest weather observations for TAS | Other Formats
Station Details ID: 094029 Name: HOBART (ELLERSLIE ROAD) Lat: -42.89 Lon: 147.33 Height: 50.5 m
Data from the previous 72 hours. | See also: Recent months at Hobart
Date/Time
EST
Temp
°C
App
Temp
°C
Dew
Point
°C
Rel
Hum
%
Delta-T
°C
Wind Press
QNH
hPa
Press
MSL
hPa
Rain since
9am
mm
Dir  Spd
km/h
Gust
km/h
Spd
kts
Gust
kts
30/02:00am 5.2 1.5 0.0 69 2.0 WNW 9 13 5 7 1017.0 1017.1 1.0
30/01:30am 5.5 3.1 -0.6 65 2.3 W 2 6 1 3 1017.0 1017.1 1.0
30/01:00am 6.1 2.7 -0.8 61 2.6 NNW 7 11 4 6 1016.7 1016.8 1.0
30/12:30am 7.2 2.9 -1.3 55 3.2 SSW 11 20 6 11 1016.2 1016.3 1.0
30/12:00am 7.8 3.2 -1.4 52 3.5 NW 13 24 7 13 1016.1 1016.2 1.0
 
Date/Time
EST
Temp
°C
App
Temp
°C
Dew
Point
°C
Rel
Hum
%
Delta-T
°C
Wind Press
QNH
hPa
Press
MSL
hPa
Rain since
9am
mm
Dir  Spd
km/h
Gust
km/h
Spd
kts
Gust
kts
29/11:30pm 7.9 3.3 -1.3 52 3.5 SSW 13 26 7 14 1015.7 1015.8 1.0
29/11:00pm 7.3 4.5 -0.1 59 2.9 E 4 11 2 6 1015.5 1015.6 1.0
29/10:30pm 7.7 2.4 -0.6 55 3.2 SSW 17 33 9 18 1015.0 1015.1 1.0
29/10:00pm 7.8 4.2 0.8 61 2.8 NW 9 26 5 14 1014.9 1015.0 1.0
29/09:30pm 7.9 3.2 1.2 62 2.7 WSW 15 22 8 12 1014.3 1014.4 1.0
29/09:07pm 8.4 1.5 0.4 57 3.2 WSW 26 46 14 25 1014.0 1014.1 1.0
29/09:00pm 8.3 2.2 0.6 58 3.1 SW 22 32 12 17 1013.7 1013.8 1.0
29/08:30pm 8.4 3.6 0.1 56 3.3 SSE 15 26 8 14 1013.6 1013.7 1.0
29/08:00pm 8.1 3.0 0.6 59 3.0 SSE 17 28 9 15 1013.0 1013.1 1.0
29/07:30pm 8.5 3.3 -0.1 54 3.4 SSW 17 37 9 20 1012.3 1012.4 1.0
29/07:15pm 8.4 2.6 0.1 56 3.3 SW 20 46 11 25 1011.9 1012.0 1.0
29/07:00pm 8.6 1.8 0.7 57 3.2 SW 26 44 14 24 1011.3 1011.4 1.0
29/06:30pm 9.5 3.6 -0.9 48 4.1 SW 20 35 11 19 1010.2 1010.4 1.0
29/06:13pm 9.8 2.2 -1.9 44 4.5 SW 28 57 15 31 1009.6 1009.8 1.0
29/06:00pm 9.5 2.5 -0.6 49 4.0 SW 26 44 14 24 1009.4 1009.6 1.0
29/05:30pm 10.3 0.0 -1.1 45 4.5 SW 43 76 23 41 1007.6 1007.7 1.0
29/05:00pm 9.7 -1.3 3.0 63 2.9 WSW 50 85 27 46 1007.1 1007.2 1.0
29/04:52pm 9.8 0.2 3.4 64 2.8 SW 43 85 23 46 1006.9 1007.0 1.0
29/04:30pm 10.0 2.2 4.9 70 2.3 SW 35 61 19 33 1006.9 1007.0 0.8
29/04:20pm 10.5 4.8 5.0 69 2.5 WSW 24 46 13 25 1006.9 1007.0 0.8
29/04:00pm 11.7 5.7 3.4 56 3.7 WSW 24 39 13 21 1006.4 1006.5 0.8
29/03:40pm 11.7 5.7 3.4 56 3.7 W 24 46 13 25 1005.7 1005.8 0.8
29/03:36pm 11.5 4.5 3.9 59 3.4 W 30 63 16 34 1005.6 1005.7 0.8
29/03:30pm 11.7 5.0 3.4 56 3.7 W 28 63 15 34 1005.6 1005.7 0.8
29/03:10pm 11.0 3.9 5.6 69 2.5 WSW 32 54 17 29 1005.6 1005.7 0.6
29/03:05pm 11.4 4.1 5.4 66 2.8 W 33 54 18 29 1005.3 1005.4 0.4
29/03:00pm 12.1 3.4 4.2 58 3.6 W 39 67 21 36 1005.0 1005.1 0.2
29/02:30pm 13.6 5.8 2.0 45 5.1 W 32 54 17 29 1004.1 1004.2 0.2
29/02:01pm 13.9 6.1 1.5 43 5.4 WNW 32 65 17 35 1003.6 1003.7 0.2
29/02:00pm 14.0 6.6 1.6 43 5.4 WNW 30 46 16 25 1003.7 1003.8 0.2
29/01:35pm 13.5 6.6 2.4 47 4.9 NW 28 61 15 33 1004.0 1004.1 0.2
29/01:30pm 13.7 7.3 3.0 48 4.8 WNW 26 43 14 23 1004.1 1004.2 0.2
29/01:14pm 14.0 7.7 1.3 42 5.5 WNW 24 50 13 27 1004.0 1004.1 0.2
29/01:00pm 13.8 7.9 3.7 50 4.6 NW 24 43 13 23 1004.3 1004.4 0.2
29/12:30pm 12.6 7.0 5.6 62 3.3 NW 24 37 13 20 1005.1 1005.2 0.2
29/12:05pm 13.6 6.9 3.4 50 4.6 NW 28 59 15 32 1004.9 1005.0 0.2
29/12:00pm 14.0 8.8 3.7 50 4.7 NW 20 37 11 20 1004.8 1004.9 0.2
29/11:30am 12.3 7.8 4.4 58 3.6 NNW 17 28 9 15 1005.4 1005.5 0.2
29/11:00am 11.2 6.5 6.1 71 2.4 N 20 33 11 18 1006.0 1006.1 0.2
29/10:30am 10.6 6.1 7.0 78 1.7 N 20 30 11 16 1006.4 1006.5 0.2
29/10:00am 10.3 4.9 6.5 77 1.8 NNW 24 32 13 17 1006.4 1006.5 0.0
29/09:30am 10.6 6.8 5.6 71 2.3 NNW 15 28 8 15 1006.3 1006.4 0.0
29/09:00am 11.3 7.5 3.9 60 3.3 N 13 20 7 11 1006.2 1006.3 -
29/08:30am 11.1 6.4 3.4 59 3.4 NNW 17 26 9 14 1006.3 1006.4 -
29/08:00am 10.6 6.7 3.6 62 3.1 N 13 20 7 11 1006.8 1006.9 -
29/07:30am 10.3 6.5 3.7 63 2.9 N 13 20 7 11 1006.9 1007.0 -
29/07:00am 10.1 6.3 4.0 66 2.7 N 13 20 7 11 1006.7 1006.8 -
29/06:30am 10.1 6.3 3.8 65 2.8 N 13 22 7 12 1006.6 1006.7 -
29/06:00am 10.3 6.1 4.0 65 2.8 N 15 28 8 15 1006.9 1007.0 -
29/05:30am 10.3 5.8 4.0 65 2.8 N 17 26 9 14 1006.8 1006.9 -
29/05:00am 10.2 5.7 4.1 66 2.7 N 17 30 9 16 1006.9 1007.0 -
29/04:30am 10.4 5.3 4.1 65 2.8 N 20 30 11 16 1007.1 1007.2 -
29/04:00am 10.3 5.2 4.0 65 2.8 NNE 20 28 11 15 1007.1 1007.2 -
29/03:30am 10.3 5.2 4.3 66 2.7 NNE 20 37 11 20 1007.4 1007.5 -
29/03:00am 10.4 5.5 3.9 64 2.9 N 19 30 10 16 1007.6 1007.7 0.0
29/02:30am 10.5 5.3 3.7 63 3.0 N 20 30 11 16 1007.9 1008.0 -
29/02:00am 10.6 5.6 3.6 62 3.1 N 19 32 10 17 1008.2 1008.3 -
29/01:30am 10.8 5.7 3.0 58 3.4 N 19 30 10 16 1008.4 1008.5 -
29/01:00am 10.5 5.9 3.7 63 3.0 N 17 39 9 21 1008.7 1008.9 -
29/12:30am 10.4 5.8 3.9 64 2.9 NNE 17 24 9 13 1009.0 1009.2 -
29/12:00am 10.5 5.5 3.7 63 3.0 NNE 19 26 10 14 1009.3 1009.5 -
 
Date/Time
EST
Temp
°C
App
Temp
°C
Dew
Point
°C
Rel
Hum
%
Delta-T
°C
Wind Press
QNH
hPa
Press
MSL
hPa
Rain since
9am
mm
Dir  Spd
km/h
Gust
km/h
Spd
kts
Gust
kts
28/11:42pm 11.3 4.8 2.5 54 3.8 N 26 46 14 25 1009.2 1009.4 -
28/11:30pm 11.1 4.6 2.8 56 3.6 N 26 52 14 28 1009.3 1009.5 -
28/11:23pm 11.3 5.2 2.5 54 3.8 N 24 52 13 28 1009.4 1009.6 -
28/11:00pm 11.0 5.4 3.3 59 3.4 N 22 37 12 20 1009.6 1009.8 -
28/10:30pm 11.2 3.6 2.7 56 3.7 NNW 32 54 17 29 1009.9 1010.1 -
28/10:14pm 11.2 4.3 2.7 56 3.7 N 28 50 15 27 1009.9 1010.1 -
28/10:00pm 11.3 4.4 2.5 54 3.8 N 28 39 15 21 1010.0 1010.2 -
28/09:30pm 11.2 3.9 2.7 56 3.7 N 30 41 16 22 1010.2 1010.4 -
28/09:00pm 11.3 4.9 3.4 58 3.5 N 26 44 14 24 1010.1 1010.3 0.4
28/08:30pm 11.4 5.1 3.5 58 3.5 N 26 35 14 19 1010.2 1010.4 -
28/08:00pm 11.5 4.7 3.1 56 3.7 N 28 39 15 21 1010.1 1010.3 -
28/07:30pm 11.5 5.1 3.1 56 3.7 N 26 35 14 19 1010.2 1010.4 -
28/07:00pm 11.6 5.4 2.4 53 4.0 N 24 41 13 22 1010.2 1010.4 -
28/06:30pm 11.4 4.8 2.1 53 4.0 N 26 37 14 20 1009.7 1009.9 -
28/06:00pm 11.7 5.7 1.3 49 4.4 N 22 35 12 19 1009.2 1009.4 -
28/05:30pm 11.9 6.4 1.6 49 4.4 N 20 41 11 22 1009.0 1009.2 -
28/05:00pm 12.5 7.8 0.9 45 4.9 N 15 22 8 12 1008.9 1009.1 -
28/04:30pm 12.9 8.5 2.7 50 4.5 NNE 15 28 8 15 1008.4 1008.5 -
28/04:00pm 13.6 8.8 2.5 47 4.9 NNW 17 30 9 16 1008.0 1008.1 -
28/03:30pm 14.5 10.9 3.0 46 5.2 NNW 11 24 6 13 1007.8 1007.9 -
28/03:00pm 15.0 10.8 1.9 41 5.8 NNW 13 33 7 18 1007.5 1007.6 -
28/02:30pm 14.6 - 3.1 46 5.2 - - - - - 1007.2 1007.3 -
28/02:00pm 15.2 9.7 1.9 40 5.9 ENE 20 44 11 24 1006.6 1006.7 0.0
28/01:49pm 15.0 7.4 0.6 37 6.2 WSW 30 57 16 31 1006.2 1006.3 0.0
28/01:48pm 15.1 7.9 0.8 37 6.2 WSW 28 57 15 31 1006.4 1006.5 0.0
28/01:45pm 15.5 8.3 0.7 36 6.4 WSW 28 57 15 31 1006.6 1006.7 0.0
28/01:44pm 15.5 8.7 0.7 36 6.4 WSW 26 57 14 31 1006.1 1006.2 0.0
28/01:30pm 15.1 8.9 2.0 41 5.8 N 24 46 13 25 1006.8 1006.9 0.0
28/01:23pm 15.5 9.2 1.4 38 6.2 W 24 52 13 28 1006.2 1006.3 0.0
28/01:00pm 15.4 8.8 1.9 40 6.0 W 26 69 14 37 1006.0 1006.1 0.0
28/12:42pm 15.6 8.3 2.2 40 6.0 W 30 69 16 37 1005.8 1005.9 0.0
28/12:38pm 15.5 7.6 2.1 40 6.0 W 33 69 18 37 1005.6 1005.7 0.0
28/12:30pm 15.3 5.4 1.4 39 6.1 W 43 70 23 38 1005.5 1005.6 0.0
28/12:00pm 15.5 7.1 1.7 39 6.1 W 35 70 19 38 1005.6 1005.7 0.0
28/11:30am 15.4 8.5 2.5 42 5.8 WNW 28 72 15 39 1006.2 1006.3 0.0
28/11:00am 15.1 7.4 2.1 41 5.8 WNW 32 61 17 33 1006.4 1006.5 0.0
28/10:47am 15.2 6.8 1.6 39 6.0 W 35 76 19 41 1006.1 1006.2 0.0
28/10:30am 15.3 8.4 2.7 42 5.7 WNW 28 54 15 29 1006.0 1006.1 0.0
28/10:00am 14.4 7.1 2.5 44 5.3 WNW 30 52 16 28 1005.8 1005.9 0.0
28/09:30am 13.9 4.5 2.4 45 5.1 W 41 69 22 37 1005.8 1005.9 0.0
28/09:00am 13.5 4.5 2.4 47 4.9 W 39 74 21 40 1005.8 1005.9 2.6
28/08:51am 13.8 4.7 1.6 43 5.3 W 39 74 21 40 1005.9 1006.0 2.6
28/08:32am 13.4 4.7 2.3 47 4.9 WNW 37 61 20 33 1005.7 1005.8 2.6
28/08:30am 13.4 4.4 2.3 47 4.9 WNW 39 61 21 33 1005.5 1005.6 2.6
28/08:08am 12.9 5.3 2.7 50 4.5 WNW 32 80 17 43 1005.0 1005.1 2.6
28/08:03am 12.3 5.5 3.3 54 4.0 NW 28 56 15 30 1005.0 1005.1 2.6
28/08:00am 12.0 6.1 3.8 57 3.7 NW 24 43 13 23 1005.0 1005.1 2.6
28/07:30am 11.9 4.2 3.4 56 3.8 NW 33 56 18 30 1004.6 1004.7 2.6
28/07:00am 11.5 4.3 3.1 56 3.7 NW 30 48 16 26 1004.9 1005.0 2.6
28/06:30am 11.5 3.8 2.3 53 4.0 WNW 32 59 17 32 1004.8 1004.9 2.6
28/06:11am 11.4 4.4 1.8 51 4.1 WNW 28 46 15 25 1004.7 1004.8 2.6
28/06:00am 11.2 4.6 2.1 53 3.9 WNW 26 44 14 24 1004.7 1004.8 2.6
28/05:30am 12.1 3.8 0.0 43 5.0 WNW 33 57 18 31 1005.1 1005.2 2.6
28/05:00am 12.8 2.3 -2.4 34 6.0 W 43 82 23 44 1004.5 1004.6 2.6
28/04:41am 13.2 3.3 -4.1 30 6.6 WNW 39 80 21 43 1004.6 1004.7 2.6
28/04:30am 12.0 3.6 -0.8 41 5.2 WNW 33 57 18 31 1004.9 1005.0 2.6
28/04:00am 10.9 3.0 0.8 49 4.2 WNW 32 57 17 31 1005.7 1005.8 2.6
28/03:30am 10.9 3.0 0.8 49 4.2 WNW 32 56 17 30 1006.1 1006.2 2.6
28/03:05am 10.5 2.6 2.1 56 3.6 WNW 33 52 18 28 1006.5 1006.6 2.6
28/03:00am 10.4 2.7 2.5 58 3.4 WNW 32 46 17 25 1006.7 1006.8 2.6
28/02:30am 10.6 2.3 2.2 56 3.6 WNW 35 57 19 31 1007.1 1007.2 2.6
28/02:00am 11.1 2.2 0.5 48 4.4 W 37 69 20 37 1006.9 1007.0 2.6
28/01:36am 11.3 2.6 -0.6 43 4.8 WNW 35 63 19 34 1006.5 1006.6 2.6
28/01:30am 10.7 2.7 0.5 49 4.2 WNW 32 48 17 26 1006.6 1006.7 2.6
28/01:09am 10.5 2.6 1.2 52 3.9 WNW 32 52 17 28 1006.3 1006.4 2.6
28/01:00am 10.4 2.0 1.3 53 3.8 WNW 35 50 19 27 1006.3 1006.4 2.6
28/12:30am 10.4 2.4 0.7 51 4.0 WNW 32 50 17 27 1005.9 1006.0 2.6
28/12:00am 10.3 1.8 0.9 52 3.9 NW 35 54 19 29 1005.5 1005.6 2.6
 
Date/Time
EST
Temp
°C
App
Temp
°C
Dew
Point
°C
Rel
Hum
%
Delta-T
°C
Wind Press
QNH
hPa
Press
MSL
hPa
Rain since
9am
mm
Dir  Spd
km/h
Gust
km/h
Spd
kts
Gust
kts
27/11:42pm 11.0 2.3 -0.7 44 4.7 WNW 35 78 19 42 1005.5 1005.6 2.6
27/11:40pm 10.7 2.4 -0.5 46 4.5 WNW 33 54 18 29 1005.5 1005.6 2.6
27/11:30pm 10.2 2.6 0.4 50 4.0 WNW 30 41 16 22 1005.5 1005.6 2.6
27/11:05pm 10.9 2.1 -1.2 43 4.8 WNW 35 57 19 31 1005.4 1005.5 2.6
27/11:00pm 10.9 2.6 -1.5 42 4.9 WNW 32 48 17 26 1005.3 1005.4 2.6
27/10:31pm 10.2 1.7 1.1 53 3.8 WNW 35 54 19 29 1005.5 1005.6 2.6
27/10:30pm 10.2 1.3 0.8 52 3.9 WNW 37 54 20 29 1005.4 1005.5 2.6
27/10:00pm 10.8 1.4 -0.3 46 4.5 W 39 65 21 35 1004.8 1004.9 2.6
27/09:30pm 11.1 2.7 -1.2 42 4.9 W 33 67 18 36 1004.5 1004.6 2.6
27/09:00pm 10.9 1.5 0.2 47 4.4 WNW 39 67 21 36 1004.3 1004.4 2.6
27/08:42pm 11.0 2.7 0.0 46 4.5 W 33 69 18 37 1003.5 1003.6 2.6
27/08:30pm 10.4 2.6 1.6 54 3.7 W 32 50 17 27 1003.2 1003.3 2.6
27/08:13pm 9.9 2.1 3.0 62 3.0 W 33 74 18 40 1003.0 1003.1 2.6
27/08:07pm 10.0 3.2 3.1 62 3.0 WSW 28 74 15 40 1003.0 1003.1 2.6
27/08:05pm 9.9 3.5 3.0 62 3.0 WSW 26 74 14 40 1002.7 1002.8 2.6
27/08:00pm 8.9 3.9 4.4 73 2.0 W 20 30 11 16 1003.0 1003.1 2.6
27/07:30pm 7.5 2.5 4.8 83 1.2 WNW 20 37 11 20 1002.8 1002.9 1.8
27/07:04pm 6.9 -1.1 3.9 81 1.3 NW 35 56 19 30 1001.4 1001.5 1.4
27/07:00pm 6.9 -2.2 3.9 81 1.3 NW 41 56 22 30 1001.5 1001.6 1.4
27/06:39pm 6.8 -2.4 3.3 78 1.5 NW 41 59 22 32 1000.5 1000.6 1.4
27/06:30pm 6.7 -2.2 2.9 77 1.6 NW 39 56 21 30 1000.5 1000.6 1.4
27/06:12pm 6.5 -2.4 2.9 78 1.5 NW 39 59 21 32 1001.0 1001.1 1.4
27/06:00pm 6.5 -2.4 3.2 79 1.4 NW 39 54 21 29 1000.7 1000.8 1.0
27/05:30pm 7.6 -3.2 1.8 67 2.4 NW 48 69 26 37 1000.9 1001.0 0.0
27/05:00pm 8.1 -4.1 0.4 58 3.1 NW 54 83 29 45 1000.4 1000.5 0.0
27/04:30pm 8.3 -1.0 0.6 58 3.1 NW 39 69 21 37 1000.4 1000.5 0.0
27/04:00pm 8.9 -2.0 -1.4 48 4.0 WNW 46 76 25 41 1000.7 1000.8 0.0
27/03:30pm 9.4 -1.9 -1.3 47 4.2 WNW 48 70 26 38 1000.0 1000.1 0.0
27/03:25pm 9.4 -0.9 -1.0 48 4.1 WNW 43 70 23 38 1000.2 1000.3 0.0
27/03:06pm 9.5 2.0 -1.2 47 4.2 NW 28 52 15 28 1001.3 1001.4 0.0
27/03:00pm 9.8 3.4 -1.4 45 4.4 NW 22 44 12 24 1001.6 1001.7 0.0
27/02:30pm 9.7 5.4 -1.6 45 4.4 SSE 11 28 6 15 1002.3 1002.4 0.0
27/02:02pm 9.1 1.6 -1.1 49 4.0 NNW 28 48 15 26 1002.3 1002.4 0.0
27/02:00pm 9.2 2.1 -1.3 48 4.1 NNW 26 39 14 21 1002.2 1002.3 0.0
27/01:30pm 9.2 2.5 -1.0 49 4.0 NNW 24 37 13 20 1002.6 1002.7 0.0
27/01:00pm 9.2 3.7 -2.0 45 4.3 N 17 26 9 14 1003.2 1003.3 0.0
27/12:30pm 9.0 2.1 -2.3 45 4.3 NNW 24 37 13 20 1003.3 1003.4 0.0
27/12:00pm 9.3 3.1 -3.0 42 4.6 NNW 20 33 11 18 1003.1 1003.2 0.0
27/11:30am 9.8 5.1 -1.5 45 4.4 NNW 13 22 7 12 1003.6 1003.7 0.0
27/11:00am 8.0 2.9 -1.7 50 3.7 NNW 15 28 8 15 1004.1 1004.2 0.0
27/10:30am 9.1 5.0 -3.3 41 4.6 NW 9 17 5 9 1003.8 1003.9 0.0
27/10:00am 7.8 2.1 -1.0 54 3.4 NNW 19 28 10 15 1004.0 1004.1 0.0
27/09:30am 7.9 1.5 -1.5 51 3.6 NW 22 33 12 18 1003.5 1003.6 0.0
27/09:00am 6.9 0.5 -1.6 54 3.2 NNW 22 37 12 20 1003.4 1003.5 3.0
27/08:30am 6.1 0.1 -1.4 58 2.8 NW 20 30 11 16 1003.4 1003.5 3.0
27/08:00am 5.1 0.5 -0.7 66 2.2 WNW 13 22 7 12 1002.6 1002.7 3.0
27/07:30am 4.5 -0.4 -0.5 70 1.9 NW 15 24 8 13 1002.3 1002.4 3.0
27/07:00am 5.9 1.0 -3.0 53 3.2 W 13 30 7 16 1001.4 1001.5 3.0
27/06:30am 5.0 0.0 -1.2 64 2.3 NW 15 20 8 11 1000.7 1000.8 3.0
27/06:00am 5.1 1.8 -1.0 65 2.3 NNE 6 17 3 9 1000.4 1000.5 3.0
27/05:30am 4.7 1.9 -0.3 70 1.9 S 4 11 2 6 1000.1 1000.2 3.0
27/05:00am 5.8 0.6 0.2 67 2.2 WSW 17 26 9 14 999.4 999.5 3.0
27/04:30am 5.9 2.0 1.2 72 1.9 SSE 11 20 6 11 998.5 998.6 3.0
27/04:00am 5.9 2.7 3.0 82 1.2 NNW 9 19 5 10 997.5 997.6 3.0
27/03:30am 6.0 3.2 3.2 82 1.2 NE 7 13 4 7 996.6 996.7 3.0
27/03:00am 5.9 2.3 3.0 82 1.2 N 11 17 6 9 996.1 996.2 3.0
27/02:30am 6.4 -0.8 2.8 78 1.5 NW 30 41 16 22 994.9 995.0 2.8

Other Formats:

Comma delimited format used in spreadsheet applications
http://www.bom.gov.au/fwo/IDT60801/IDT60801.94970.axf

JavaScript Object Notation format (JSON) in row-major order
http://www.bom.gov.au/fwo/IDT60801/IDT60801.94970.json